Leeni — C4LT2 — position and weather

sailwx.info

Track history (hours):
 
Tides and Currents Weather Stations Pressure Air Temp Water Temp Dewpoint Dewpoint Depression Visibility Wind Speed Wind Dir Waves Ship Positions

Leeni

Last reported at 2018-Feb-25 07:00 UTC. Time now 2018-Feb-26 00:00 UTC.
Position N 49°48' W 003°26'.

Length 90 m; draft 4.8 m.

Type: Tanker. MMSI: 210318000.

Date/timePositionNaut miles runAvg speedWind from/ knotsBaromVisibWave heightAir tempDewpointWater temp
2018-Feb-25 07:00N 49°48' W 003°26'4 8.5
2018-Feb-25 06:30N 49°50' W 003°20'13 8.1
2018-Feb-25 04:54N 49°57' W 003°03'3 7.5
2018-Feb-25 04:29N 49°58' W 002°58'10 7.0
2018-Feb-25 03:00N 50°02' W 002°43'92 8.1
2018-Feb-24 15:36N 50°28' W 000°24'1 7.1
2018-Feb-24 15:29N 50°28' W 000°23'3 6.8
2018-Feb-24 15:00N 50°29' W 000°18'3 6.7
2018-Feb-24 14:31N 50°30' W 000°13'3 6.8
2018-Feb-24 14:00N 50°31' W 000°08'3 6.9
2018-Feb-24 13:31N 50°31' W 000°03'4 7.1
2018-Feb-24 13:01N 50°32' E 000°03'4 7.3
2018-Feb-24 12:31N 50°34' E 000°08'4 7.7
2018-Feb-24 12:00N 50°35' E 000°14'4 8.1
2018-Feb-24 11:30N 50°36' E 000°20'4 8.5
2018-Feb-24 11:00N 50°37' E 000°26'4 8.7
2018-Feb-24 10:30N 50°38' E 000°33'4 8.8
2018-Feb-24 10:00N 50°41' E 000°39'5 9.3
2018-Feb-24 09:30N 50°43' E 000°45'5 9.2
2018-Feb-24 09:00N 50°46' E 000°50'4 9.0
2018-Feb-24 08:30N 50°49' E 000°56'12 8.4
2018-Feb-24 07:06N 50°56' E 001°11'1 8.4
2018-Feb-24 06:59N 50°57' E 001°12'4 7.3
2018-Feb-24 06:30N 50°59' E 001°16'3 7.0
2018-Feb-24 06:00N 51°01' E 001°21'3 6.8
2018-Feb-24 05:30N 51°03' E 001°25'4 7.3
2018-Feb-24 04:59N 51°06' E 001°30'4 7.7
2018-Feb-24 04:31N 51°08' E 001°34'4 7.9
2018-Feb-24 04:00N 51°11' E 001°39'4 8.3
2018-Feb-24 03:31N 51°13' E 001°44'4 9.0
2018-Feb-24 03:01N 51°17' E 001°48'5 9.6
2018-Feb-24 02:30N 51°21' E 001°52'5 9.7
2018-Feb-24 02:00N 51°25' E 001°57'4 7.7
2018-Feb-24 01:30N 51°24' E 002°03'4 8.9
2018-Feb-24 01:00N 51°22' E 002°10'4 8.7
2018-Feb-24 00:30N 51°21' E 002°16'5 9.6
2018-Feb-24 00:00N 51°22' E 002°24'5 9.7
2018-Feb-23 23:30N 51°23' E 002°31'5 9.4
2018-Feb-23 23:00N 51°23' E 002°39'4 8.9
2018-Feb-23 22:30N 51°22' E 002°46'611.6
2018-Feb-23 22:00N 51°23' E 002°55'612.1
2018-Feb-23 21:30N 51°24' E 003°04'612.1
2018-Feb-23 21:00N 51°25' E 003°14'612.0
2018-Feb-23 20:30N 51°25' E 003°24'611.9
2018-Feb-23 19:58N 51°26' E 003°34'510.7
2018-Feb-23 19:30N 51°26' E 003°42'510.6
2018-Feb-23 19:00N 51°22' E 003°47'2 4.7
2018-Feb-23 18:30N 51°20' E 003°49'1 1.4
2018-Feb-23 18:00N 51°19' E 003°50'2 3.2
2018-Feb-23 17:30N 51°17' E 003°50'4 8.1
2018-Feb-23 17:00N 51°14' E 003°48'4 8.2
2018-Feb-23 16:30N 51°10' E 003°47'4 8.2
2018-Feb-23 16:00N 51°06' E 003°44'1 1.8
2018-Feb-23 15:26N 51°05' E 003°44'0 0.0
2018-Feb-23 14:50N 51°05' E 003°44'0 0.0
2018-Feb-23 14:26N 51°05' E 003°44'0 0.0
2018-Feb-23 13:56N 51°05' E 003°44'0 0.0
2018-Feb-23 13:26N 51°05' E 003°44'0 0.0
2018-Feb-23 12:56N 51°05' E 003°44'0 0.0
2018-Feb-23 12:20N 51°05' E 003°44'0 0.0
2018-Feb-23 11:56N 51°05' E 003°44'0 0.0
2018-Feb-23 11:20N 51°05' E 003°44'0 0.0
2018-Feb-23 10:56N 51°05' E 003°44'0 0.0
2018-Feb-23 10:26N 51°05' E 003°44'0 0.0
2018-Feb-23 09:56N 51°05' E 003°44'0 0.0
2018-Feb-23 09:25N 51°05' E 003°44'0 0.0
2018-Feb-23 08:59N 51°05' E 003°44'0 0.0
2018-Feb-23 08:23N 51°05' E 003°44'0 0.0
2018-Feb-23 07:55N 51°05' E 003°44'0 0.0
2018-Feb-23 07:25N 51°05' E 003°44'0 0.0
2018-Feb-23 06:49N 51°05' E 003°44'0 0.0
2018-Feb-23 06:25N 51°05' E 003°44'0 0.0
2018-Feb-23 05:46N 51°05' E 003°44'0 0.0
2018-Feb-23 05:25N 51°05' E 003°44'0 0.0
2018-Feb-23 04:58N 51°05' E 003°44'0 0.0
2018-Feb-23 04:22N 51°05' E 003°44'0 0.0
2018-Feb-23 03:55N 51°05' E 003°44'0 0.0
2018-Feb-23 03:25N 51°05' E 003°44'0 0.0
2018-Feb-23 02:55N 51°05' E 003°44'0 0.0
2018-Feb-23 02:25N 51°05' E 003°44'0 0.0
2018-Feb-23 01:55N 51°05' E 003°44'0 0.0
2018-Feb-23 01:25N 51°05' E 003°44'0 0.0
2018-Feb-23 00:55N 51°05' E 003°44'0 0.0
2018-Feb-23 00:25N 51°05' E 003°44'0 0.0
2018-Feb-22 23:49N 51°05' E 003°44'0 0.0
2018-Feb-22 23:25N 51°05' E 003°44'0 0.0
2018-Feb-22 22:55N 51°05' E 003°44'0 0.0
2018-Feb-22 22:25N 51°05' E 003°44'0 0.0
2018-Feb-22 21:55N 51°05' E 003°44'0 0.0
2018-Feb-22 21:25N 51°05' E 003°44'0 0.0
2018-Feb-22 20:55N 51°05' E 003°44'0 0.0
2018-Feb-22 20:19N 51°05' E 003°44'0 0.0
2018-Feb-22 19:55N 51°05' E 003°44'0 0.0
2018-Feb-22 19:28N 51°05' E 003°44'0 0.0
2018-Feb-22 18:55N 51°05' E 003°44'0 0.0
2018-Feb-22 18:25N 51°05' E 003°44'0 0.0
2018-Feb-22 17:43N 51°05' E 003°44'0 0.0
2018-Feb-22 17:13N 51°05' E 003°44'0 0.0
2018-Feb-22 16:49N 51°05' E 003°44'0 0.0
2018-Feb-22 16:25N 51°05' E 003°44'0 0.0
2018-Feb-22 15:55N 51°05' E 003°44'0 0.0
2018-Feb-22 15:25N 51°05' E 003°44'0 0.0
2018-Feb-22 14:55N 51°05' E 003°44'0 0.0
2018-Feb-22 14:25N 51°05' E 003°44'0 0.0
2018-Feb-22 13:55N 51°05' E 003°44'0 0.0
2018-Feb-22 13:25N 51°05' E 003°44'0 0.0
2018-Feb-22 12:55N 51°05' E 003°44'0 0.0
2018-Feb-22 12:25N 51°05' E 003°44'0 0.0
2018-Feb-22 11:55N 51°05' E 003°44'0 0.0
2018-Feb-22 11:25N 51°05' E 003°44'0 0.1
2018-Feb-22 11:00N 51°05' E 003°44'2 3.8
2018-Feb-22 10:30N 51°07' E 003°45'4 8.1
2018-Feb-22 10:00N 51°10' E 003°48'4 8.0
2018-Feb-22 09:30N 51°14' E 003°49'4 7.1
2018-Feb-22 09:00N 51°18' E 003°50'1 2.6
2018-Feb-22 08:31N 51°19' E 003°50'1 1.3
2018-Feb-22 08:01N 51°20' E 003°49'0 0.5
2018-Feb-22 07:31N 51°20' E 003°49'3 6.3
2018-Feb-22 07:01N 51°22' E 003°45'5 9.3
2018-Feb-22 06:30N 51°25' E 003°39'4 7.3
2018-Feb-22 06:01N 51°25' E 003°34'5 8.9
2018-Feb-22 05:29N 51°25' E 003°26'5 9.7
2018-Feb-22 05:01N 51°24' E 003°19'510.6
2018-Feb-22 04:31N 51°24' E 003°10'611.5
2018-Feb-22 04:00N 51°24' E 003°01'611.6
2018-Feb-22 03:30N 51°22' E 002°53'610.1
2018-Feb-22 02:56N 51°22' E 002°43'510.7
2018-Feb-22 02:27N 51°21' E 002°35'1 2.2
2018-Feb-22 01:56N 51°20' E 002°34'0 0.0
2018-Feb-22 01:29N 51°20' E 002°34'0 0.0
2018-Feb-22 00:59N 51°20' E 002°34'0 0.0
2018-Feb-22 00:23N 51°20' E 002°34'0 0.0
2018-Feb-21 23:47N 51°20' E 002°34'0 0.1
2018-Feb-21 23:29N 51°20' E 002°34'0 0.0
2018-Feb-21 22:59N 51°20' E 002°34'0 0.0
2018-Feb-21 22:26N 51°20' E 002°34'0 0.0
2018-Feb-21 21:44N 51°20' E 002°34'0 0.0
2018-Feb-21 21:11N 51°20' E 002°34'0 0.0
2018-Feb-21 20:56N 51°20' E 002°34'0 0.0
2018-Feb-21 20:23N 51°20' E 002°34'0 0.0
2018-Feb-21 19:59N 51°20' E 002°34'0 0.0
2018-Feb-21 19:29N 51°20' E 002°34'0 0.2
2018-Feb-21 18:59N 51°20' E 002°34'0 0.1
2018-Feb-21 18:29N 51°20' E 002°34'0 0.0
2018-Feb-21 17:59N 51°20' E 002°34'0 0.0
2018-Feb-21 17:29N 51°20' E 002°34'0 0.0
2018-Feb-21 16:56N 51°20' E 002°34'0 0.0
2018-Feb-21 16:20N 51°20' E 002°34'0 0.0
2018-Feb-21 15:59N 51°20' E 002°34'0 0.0
2018-Feb-21 15:29N 51°20' E 002°34'0 0.1
2018-Feb-21 14:59N 51°20' E 002°34'0 0.2
2018-Feb-21 14:29N 51°20' E 002°34'0 0.1
2018-Feb-21 13:56N 51°20' E 002°34'0 0.0
2018-Feb-21 13:29N 51°20' E 002°34'0 0.0
2018-Feb-21 12:59N 51°20' E 002°34'0 0.0
2018-Feb-21 12:23N 51°20' E 002°34'0 0.0
2018-Feb-21 11:53N 51°20' E 002°34'0 0.0
2018-Feb-21 11:29N 51°20' E 002°34'0 0.0
2018-Feb-21 10:59N 51°20' E 002°34'0 0.0
2018-Feb-21 10:11N 51°20' E 002°34'0 0.0
2018-Feb-21 09:59N 51°20' E 002°34'0 0.0
2018-Feb-21 09:29N 51°20' E 002°34'0 0.0
2018-Feb-21 08:56N 51°20' E 002°34'0 0.0
2018-Feb-21 08:23N 51°20' E 002°34'0 0.0
2018-Feb-21 07:47N 51°20' E 002°34'0 0.0
2018-Feb-21 07:29N 51°20' E 002°34'0 0.2
2018-Feb-21 06:50N 51°20' E 002°34'0 0.1
2018-Feb-21 06:29N 51°20' E 002°34'0 0.2
2018-Feb-21 05:59N 51°20' E 002°34'0 0.1
2018-Feb-21 05:29N 51°20' E 002°34'0 0.0
2018-Feb-21 04:50N 51°20' E 002°34'0 0.0
2018-Feb-21 04:20N 51°20' E 002°34'0 0.0
2018-Feb-21 03:50N 51°20' E 002°34'0 0.0
2018-Feb-21 03:29N 51°20' E 002°34'0 0.2
2018-Feb-21 02:56N 51°20' E 002°34'0 0.2
2018-Feb-21 02:23N 51°20' E 002°34'0 0.0
2018-Feb-21 01:59N 51°20' E 002°34'0 0.0
2018-Feb-21 01:29N 51°20' E 002°34'0 0.0
2018-Feb-21 00:59N 51°20' E 002°34'0 0.0
2018-Feb-21 00:20N 51°20' E 002°34'0 0.0
2018-Feb-20 23:59N 51°20' E 002°34'0 0.0
2018-Feb-20 23:29N 51°20' E 002°34'0 0.0
2018-Feb-20 22:59N 51°20' E 002°34'0 0.0
2018-Feb-20 22:29N 51°20' E 002°34'0 0.0
2018-Feb-20 21:53N 51°20' E 002°34'0 0.0
2018-Feb-20 21:26N 51°20' E 002°34'0 0.0
2018-Feb-20 20:53N 51°20' E 002°34'0 0.0
2018-Feb-20 20:29N 51°20' E 002°34'0 0.1
2018-Feb-20 19:55N 51°20' E 002°34'0 0.0
2018-Feb-20 19:29N 51°20' E 002°34'0 0.1
2018-Feb-20 18:55N 51°20' E 002°34'0 0.1
2018-Feb-20 18:28N 51°20' E 002°34'0 0.0
2018-Feb-20 17:58N 51°20' E 002°34'0 0.0
2018-Feb-20 17:28N 51°20' E 002°34'0 0.0
2018-Feb-20 16:58N 51°20' E 002°34'0 0.0
2018-Feb-20 16:28N 51°20' E 002°34'0 0.2
2018-Feb-20 15:58N 51°20' E 002°34'0 0.0
2018-Feb-20 15:28N 51°20' E 002°34'0 0.1
2018-Feb-20 14:58N 51°20' E 002°34'0 0.1
2018-Feb-20 14:28N 51°20' E 002°34'0 0.0
2018-Feb-20 13:58N 51°20' E 002°34'0 0.1
2018-Feb-20 13:28N 51°20' E 002°34'0 0.2
2018-Feb-20 12:58N 51°20' E 002°34'0 0.0
2018-Feb-20 12:28N 51°20' E 002°34'0 0.0
2018-Feb-20 11:43N 51°20' E 002°34'0 0.0
2018-Feb-20 11:28N 51°20' E 002°34'0 0.0
2018-Feb-20 10:37N 51°20' E 002°34'0 0.1
2018-Feb-20 10:28N 51°20' E 002°34'0 0.2
2018-Feb-20 10:00N 51°20' E 002°34'2 3.9
2018-Feb-20 09:30N 51°22' E 002°32'5 9.0
2018-Feb-20 09:00N 51°21' E 002°25'5 9.9
2018-Feb-20 08:29N 51°18' E 002°18'610.1
2018-Feb-20 07:53N 51°15' E 002°10'4 9.9
2018-Feb-20 07:30N 51°13' E 002°05'510.7
2018-Feb-20 07:00N 51°11' E 001°57'610.9
2018-Feb-20 06:30N 51°08' E 001°49'611.4
2018-Feb-20 06:01N 51°04' E 001°43'611.7
2018-Feb-20 05:30N 50°60' E 001°36'612.1
2018-Feb-20 04:59N 50°55' E 001°30'7312.0
2018-Feb-19 22:51N 50°00' E 000°14'513.3
2018-Feb-19 22:29N 49°57' E 000°08'612.9
2018-Feb-19 22:00N 49°53' E 000°01'612.3
2018-Feb-19 21:30N 49°49' W 000°06'510.8
2018-Feb-19 21:00N 49°44' W 000°10'510.1
2018-Feb-19 20:30N 49°39' W 000°10'510.1
2018-Feb-19 20:00N 49°34' W 000°11'5 9.2
2018-Feb-19 19:30N 49°30' W 000°08'510.9
2018-Feb-19 19:00N 49°28' E 000°00'5 9.4
2018-Feb-19 18:30N 49°26' E 000°07'612.4
2018-Feb-19 18:00N 49°26' E 000°17'713.6
2018-Feb-19 17:30N 49°28' E 000°27'5 9.4
2018-Feb-19 17:00N 49°27' E 000°34'5 9.7
2018-Feb-19 16:30N 49°29' E 000°40'4 8.4
2018-Feb-19 16:00N 49°30' E 000°46'5 9.8
2018-Feb-19 15:30N 49°25' E 000°48'2 4.7
2018-Feb-19 15:00N 49°26' E 000°52'4 7.9
2018-Feb-19 14:30N 49°29' E 000°54'4 8.5
2018-Feb-19 14:01N 49°25' E 000°56'4 7.8
2018-Feb-19 13:30N 49°21' E 000°57'2 2.4
2018-Feb-19 12:49N 49°21' E 000°59'0 0.0
2018-Feb-19 12:25N 49°21' E 000°59'0 0.0
2018-Feb-19 11:43N 49°21' E 000°59'0 0.0
2018-Feb-19 11:25N 49°21' E 000°59'0 0.0
2018-Feb-19 10:55N 49°21' E 000°59'0 0.0
2018-Feb-19 10:25N 49°21' E 000°59'0 0.0
2018-Feb-19 09:55N 49°21' E 000°59'0 0.0
2018-Feb-19 09:25N 49°21' E 000°59'0 0.0
2018-Feb-19 08:55N 49°21' E 000°59'0 0.0
2018-Feb-19 08:25N 49°21' E 000°59'0 0.0
2018-Feb-19 07:55N 49°21' E 000°59'0 0.0
2018-Feb-19 07:25N 49°21' E 000°59'0 0.0
2018-Feb-19 06:55N 49°21' E 000°59'0 0.0
2018-Feb-19 06:19N 49°21' E 000°59'0 0.0
2018-Feb-19 05:55N 49°21' E 000°59'0 0.0
2018-Feb-19 05:25N 49°21' E 000°59'0 0.0
2018-Feb-19 04:55N 49°21' E 000°59'0 0.0
2018-Feb-19 04:25N 49°21' E 000°59'0 0.0
2018-Feb-19 03:55N 49°21' E 000°59'0 0.0
2018-Feb-19 03:13N 49°21' E 000°59'0 0.0
2018-Feb-19 02:55N 49°21' E 000°59'0 0.0
2018-Feb-19 02:25N 49°21' E 000°59'0 0.0
2018-Feb-19 01:55N 49°21' E 000°59'0 0.0
2018-Feb-19 01:25N 49°21' E 000°59'0 0.0
2018-Feb-19 00:55N 49°21' E 000°59'0 0.0
2018-Feb-19 00:25N 49°21' E 000°59'0 0.0
2018-Feb-18 23:55N 49°21' E 000°59'0 0.0
2018-Feb-18 23:19N 49°21' E 000°59'0 0.0
2018-Feb-18 22:55N 49°21' E 000°59'0 0.0
2018-Feb-18 22:25N 49°21' E 000°59'0 0.0
2018-Feb-18 21:49N 49°21' E 000°59'0 0.0
2018-Feb-18 21:19N 49°21' E 000°59'0 0.0
2018-Feb-18 20:55N 49°21' E 000°59'0 0.0
2018-Feb-18 20:31N 49°21' E 000°59'0 0.0
2018-Feb-18 19:55N 49°21' E 000°59'0 0.0
2018-Feb-18 19:24N 49°21' E 000°59'0 0.0
2018-Feb-18 19:00N 49°21' E 000°59'0 0.0
2018-Feb-18 18:30N 49°21' E 000°59'0 0.0
2018-Feb-18 18:00N 49°21' E 000°59'0 0.0
2018-Feb-18 17:30N 49°21' E 000°59'0 0.0
2018-Feb-18 17:00N 49°21' E 000°59'0 0.0
2018-Feb-18 16:24N 49°21' E 000°59'0 0.0
2018-Feb-18 16:00N 49°21' E 000°59'0 0.0
2018-Feb-18 15:24N 49°21' E 000°59'0 0.0
2018-Feb-18 15:00N 49°21' E 000°59'0 0.0
2018-Feb-18 14:30N 49°21' E 000°59'0 0.0
2018-Feb-18 14:00N 49°21' E 000°59'0 0.0
2018-Feb-18 13:30N 49°21' E 000°59'0 0.0
2018-Feb-18 13:00N 49°21' E 000°59'0 0.0
2018-Feb-18 12:30N 49°21' E 000°59'0 0.0
2018-Feb-18 12:00N 49°21' E 000°59'0 0.0
2018-Feb-18 11:30N 49°21' E 000°59'0 0.0
2018-Feb-18 11:00N 49°21' E 000°59'0 0.0
2018-Feb-18 10:30N 49°21' E 000°59'0 0.0
2018-Feb-18 09:54N 49°21' E 000°59'0 0.0
2018-Feb-18 09:24N 49°21' E 000°59'0 0.0
2018-Feb-18 09:00N 49°21' E 000°59'0 0.0
2018-Feb-18 08:30N 49°21' E 000°59'0 0.0
2018-Feb-18 08:00N 49°21' E 000°59'0 0.0
2018-Feb-18 07:30N 49°21' E 000°59'0 0.0
2018-Feb-18 07:00N 49°21' E 000°59'0 0.0
2018-Feb-18 06:30N 49°21' E 000°59'0 0.0
2018-Feb-18 06:00N 49°21' E 000°59'0 0.0
2018-Feb-18 05:30N 49°21' E 000°59'0 0.0
2018-Feb-18 05:00N 49°21' E 000°59'0 0.0
2018-Feb-18 04:30N 49°21' E 000°59'2 3.6
2018-Feb-18 04:00N 49°21' E 000°57'4 8.3
2018-Feb-18 03:30N 49°25' E 000°56'4 8.3
2018-Feb-18 03:00N 49°29' E 000°54'4 8.3
2018-Feb-18 02:30N 49°25' E 000°52'3 5.1
2018-Feb-18 02:00N 49°26' E 000°48'5 9.4
2018-Feb-18 01:30N 49°30' E 000°46'4 8.3
2018-Feb-18 01:00N 49°30' E 000°40'510.0
2018-Feb-18 00:30N 49°26' E 000°35'510.0
2018-Feb-18 00:00N 49°29' E 000°29'611.8
2018-Feb-17 23:30N 49°26' E 000°20'611.5
2018-Feb-17 23:00N 49°26' E 000°12'611.2
2018-Feb-17 22:30N 49°27' E 000°03'510.6
2018-Feb-17 22:00N 49°29' W 000°04'1 2.7
2018-Feb-17 21:29N 49°28' W 000°06'0 0.1
2018-Feb-17 20:59N 49°28' W 000°06'0 0.1
2018-Feb-17 20:29N 49°28' W 000°06'0 0.2
2018-Feb-17 19:56N 49°28' W 000°06'0 0.2
2018-Feb-17 19:29N 49°28' W 000°06'0 0.1
2018-Feb-17 18:58N 49°28' W 000°07'0 0.0
2018-Feb-17 18:28N 49°28' W 000°07'0 0.0
2018-Feb-17 17:58N 49°28' W 000°07'0 0.0
2018-Feb-17 17:28N 49°28' W 000°07'0 0.0
2018-Feb-17 16:55N 49°28' W 000°07'0 0.0
2018-Feb-17 16:28N 49°28' W 000°07'0 0.0
2018-Feb-17 15:58N 49°28' W 000°07'0 0.0
2018-Feb-17 15:28N 49°28' W 000°07'2 3.9
2018-Feb-17 15:01N 49°29' W 000°09'5 9.8
2018-Feb-17 14:30N 49°31' W 000°16'5 9.8
2018-Feb-17 14:00N 49°33' W 000°23'510.1
2018-Feb-17 13:30N 49°35' W 000°30'510.1
2018-Feb-17 12:59N 49°36' W 000°38'510.5
2018-Feb-17 12:30N 49°39' W 000°45'1111.2
2018-Feb-17 11:32N 49°43' W 001°00'012.3
2018-Feb-17 11:30N 49°43' W 001°01'612.4
2018-Feb-17 11:00N 49°46' W 001°09'713.4
2018-Feb-17 10:30N 49°48' W 001°19'714.1
2018-Feb-17 10:01N 49°49' W 001°30'714.4
2018-Feb-17 09:31N 49°50' W 001°41'815.6
2018-Feb-17 09:01N 49°51' W 001°53'2514.4
2018-Feb-17 07:18N 49°52' W 002°31'189 6.9
2018-Feb-16 04:03N 52°15' W 005°47'211.2
2018-Feb-16 03:53N 52°17' W 005°47'2812.7
2018-Feb-16 01:43N 52°44' W 005°39'413.0
2018-Feb-16 01:24N 52°48' W 005°37'612.7
2018-Feb-16 00:58N 52°53' W 005°36'94 7.1
2018-Feb-15 11:41N 54°25' W 005°03'4 8.1
2018-Feb-15 11:14N 54°28' W 005°08'2 9.1
2018-Feb-15 11:00N 54°29' W 005°11'4 9.0
2018-Feb-15 10:31N 54°31' W 005°17'4 8.4
2018-Feb-15 10:01N 54°35' W 005°22'8 9.9
2018-Feb-15 09:10N 54°42' W 005°28'210.7
2018-Feb-15 09:00N 54°43' W 005°31'511.0
2018-Feb-15 08:30N 54°42' W 005°40'5 9.8
2018-Feb-15 08:00N 54°41' W 005°48'5 9.1
2018-Feb-15 07:29N 54°37' W 005°54'  
Track history (hours):
 
Tides and Currents Weather Stations Pressure Air Temp Water Temp Dewpoint Dewpoint Depression Visibility Wind Speed Wind Dir Waves Ship Positions

Leeni

Last reported at 2018-Feb-25 07:00 UTC. Time now 2018-Feb-26 00:00 UTC.
Position N 49°48' W 003°26'.

Length 90 m; draft 4.8 m.

Type: Tanker. MMSI: 210318000.

Date/timePositionNaut miles runAvg speedWind from/ knotsBaromVisibWave heightAir tempDewpointWater temp
2018-Feb-25 07:00N 49°48' W 003°26'4 8.5
2018-Feb-25 06:30N 49°50' W 003°20'13 8.1
2018-Feb-25 04:54N 49°57' W 003°03'3 7.5
2018-Feb-25 04:29N 49°58' W 002°58'10 7.0
2018-Feb-25 03:00N 50°02' W 002°43'92 8.1
2018-Feb-24 15:36N 50°28' W 000°24'1 7.1
2018-Feb-24 15:29N 50°28' W 000°23'3 6.8
2018-Feb-24 15:00N 50°29' W 000°18'3 6.7
2018-Feb-24 14:31N 50°30' W 000°13'3 6.8
2018-Feb-24 14:00N 50°31' W 000°08'3 6.9
2018-Feb-24 13:31N 50°31' W 000°03'4 7.1
2018-Feb-24 13:01N 50°32' E 000°03'4 7.3
2018-Feb-24 12:31N 50°34' E 000°08'4 7.7
2018-Feb-24 12:00N 50°35' E 000°14'4 8.1
2018-Feb-24 11:30N 50°36' E 000°20'4 8.5
2018-Feb-24 11:00N 50°37' E 000°26'4 8.7
2018-Feb-24 10:30N 50°38' E 000°33'4 8.8
2018-Feb-24 10:00N 50°41' E 000°39'5 9.3
2018-Feb-24 09:30N 50°43' E 000°45'5 9.2
2018-Feb-24 09:00N 50°46' E 000°50'4 9.0
2018-Feb-24 08:30N 50°49' E 000°56'12 8.4
2018-Feb-24 07:06N 50°56' E 001°11'1 8.4
2018-Feb-24 06:59N 50°57' E 001°12'4 7.3
2018-Feb-24 06:30N 50°59' E 001°16'3 7.0
2018-Feb-24 06:00N 51°01' E 001°21'3 6.8
2018-Feb-24 05:30N 51°03' E 001°25'4 7.3
2018-Feb-24 04:59N 51°06' E 001°30'4 7.7
2018-Feb-24 04:31N 51°08' E 001°34'4 7.9
2018-Feb-24 04:00N 51°11' E 001°39'4 8.3
2018-Feb-24 03:31N 51°13' E 001°44'4 9.0
2018-Feb-24 03:01N 51°17' E 001°48'5 9.6
2018-Feb-24 02:30N 51°21' E 001°52'5 9.7
2018-Feb-24 02:00N 51°25' E 001°57'4 7.7
2018-Feb-24 01:30N 51°24' E 002°03'4 8.9
2018-Feb-24 01:00N 51°22' E 002°10'4 8.7
2018-Feb-24 00:30N 51°21' E 002°16'5 9.6
2018-Feb-24 00:00N 51°22' E 002°24'5 9.7
2018-Feb-23 23:30N 51°23' E 002°31'5 9.4
2018-Feb-23 23:00N 51°23' E 002°39'4 8.9
2018-Feb-23 22:30N 51°22' E 002°46'611.6
2018-Feb-23 22:00N 51°23' E 002°55'612.1
2018-Feb-23 21:30N 51°24' E 003°04'612.1
2018-Feb-23 21:00N 51°25' E 003°14'612.0
2018-Feb-23 20:30N 51°25' E 003°24'611.9
2018-Feb-23 19:58N 51°26' E 003°34'510.7
2018-Feb-23 19:30N 51°26' E 003°42'510.6
2018-Feb-23 19:00N 51°22' E 003°47'2 4.7
2018-Feb-23 18:30N 51°20' E 003°49'1 1.4
2018-Feb-23 18:00N 51°19' E 003°50'2 3.2
2018-Feb-23 17:30N 51°17' E 003°50'4 8.1
2018-Feb-23 17:00N 51°14' E 003°48'4 8.2
2018-Feb-23 16:30N 51°10' E 003°47'4 8.2
2018-Feb-23 16:00N 51°06' E 003°44'1 1.8
2018-Feb-23 15:26N 51°05' E 003°44'0 0.0
2018-Feb-23 14:50N 51°05' E 003°44'0 0.0
2018-Feb-23 14:26N 51°05' E 003°44'0 0.0
2018-Feb-23 13:56N 51°05' E 003°44'0 0.0
2018-Feb-23 13:26N 51°05' E 003°44'0 0.0
2018-Feb-23 12:56N 51°05' E 003°44'0 0.0
2018-Feb-23 12:20N 51°05' E 003°44'0 0.0
2018-Feb-23 11:56N 51°05' E 003°44'0 0.0
2018-Feb-23 11:20N 51°05' E 003°44'0 0.0
2018-Feb-23 10:56N 51°05' E 003°44'0 0.0
2018-Feb-23 10:26N 51°05' E 003°44'0 0.0
2018-Feb-23 09:56N 51°05' E 003°44'0 0.0
2018-Feb-23 09:25N 51°05' E 003°44'0 0.0
2018-Feb-23 08:59N 51°05' E 003°44'0 0.0
2018-Feb-23 08:23N 51°05' E 003°44'0 0.0
2018-Feb-23 07:55N 51°05' E 003°44'0 0.0
2018-Feb-23 07:25N 51°05' E 003°44'0 0.0
2018-Feb-23 06:49N 51°05' E 003°44'0 0.0
2018-Feb-23 06:25N 51°05' E 003°44'0 0.0
2018-Feb-23 05:46N 51°05' E 003°44'0 0.0
2018-Feb-23 05:25N 51°05' E 003°44'0 0.0
2018-Feb-23 04:58N 51°05' E 003°44'0 0.0
2018-Feb-23 04:22N 51°05' E 003°44'0 0.0
2018-Feb-23 03:55N 51°05' E 003°44'0 0.0
2018-Feb-23 03:25N 51°05' E 003°44'0 0.0
2018-Feb-23 02:55N 51°05' E 003°44'0 0.0
2018-Feb-23 02:25N 51°05' E 003°44'0 0.0
2018-Feb-23 01:55N 51°05' E 003°44'0 0.0
2018-Feb-23 01:25N 51°05' E 003°44'0 0.0
2018-Feb-23 00:55N 51°05' E 003°44'0 0.0
2018-Feb-23 00:25N 51°05' E 003°44'0 0.0
2018-Feb-22 23:49N 51°05' E 003°44'0 0.0
2018-Feb-22 23:25N 51°05' E 003°44'0 0.0
2018-Feb-22 22:55N 51°05' E 003°44'0 0.0
2018-Feb-22 22:25N 51°05' E 003°44'0 0.0
2018-Feb-22 21:55N 51°05' E 003°44'0 0.0
2018-Feb-22 21:25N 51°05' E 003°44'0 0.0
2018-Feb-22 20:55N 51°05' E 003°44'0 0.0
2018-Feb-22 20:19N 51°05' E 003°44'0 0.0
2018-Feb-22 19:55N 51°05' E 003°44'0 0.0
2018-Feb-22 19:28N 51°05' E 003°44'0 0.0
2018-Feb-22 18:55N 51°05' E 003°44'0 0.0
2018-Feb-22 18:25N 51°05' E 003°44'0 0.0
2018-Feb-22 17:43N 51°05' E 003°44'0 0.0
2018-Feb-22 17:13N 51°05' E 003°44'0 0.0
2018-Feb-22 16:49N 51°05' E 003°44'0 0.0
2018-Feb-22 16:25N 51°05' E 003°44'0 0.0
2018-Feb-22 15:55N 51°05' E 003°44'0 0.0
2018-Feb-22 15:25N 51°05' E 003°44'0 0.0
2018-Feb-22 14:55N 51°05' E 003°44'0 0.0
2018-Feb-22 14:25N 51°05' E 003°44'0 0.0
2018-Feb-22 13:55N 51°05' E 003°44'0 0.0
2018-Feb-22 13:25N 51°05' E 003°44'0 0.0
2018-Feb-22 12:55N 51°05' E 003°44'0 0.0
2018-Feb-22 12:25N 51°05' E 003°44'0 0.0
2018-Feb-22 11:55N 51°05' E 003°44'0 0.0
2018-Feb-22 11:25N 51°05' E 003°44'0 0.1
2018-Feb-22 11:00N 51°05' E 003°44'2 3.8
2018-Feb-22 10:30N 51°07' E 003°45'4 8.1
2018-Feb-22 10:00N 51°10' E 003°48'4 8.0
2018-Feb-22 09:30N 51°14' E 003°49'4 7.1
2018-Feb-22 09:00N 51°18' E 003°50'1 2.6
2018-Feb-22 08:31N 51°19' E 003°50'1 1.3
2018-Feb-22 08:01N 51°20' E 003°49'0 0.5
2018-Feb-22 07:31N 51°20' E 003°49'3 6.3
2018-Feb-22 07:01N 51°22' E 003°45'5 9.3
2018-Feb-22 06:30N 51°25' E 003°39'4 7.3
2018-Feb-22 06:01N 51°25' E 003°34'5 8.9
2018-Feb-22 05:29N 51°25' E 003°26'5 9.7
2018-Feb-22 05:01N 51°24' E 003°19'510.6
2018-Feb-22 04:31N 51°24' E 003°10'611.5
2018-Feb-22 04:00N 51°24' E 003°01'611.6
2018-Feb-22 03:30N 51°22' E 002°53'610.1
2018-Feb-22 02:56N 51°22' E 002°43'510.7
2018-Feb-22 02:27N 51°21' E 002°35'1 2.2
2018-Feb-22 01:56N 51°20' E 002°34'0 0.0
2018-Feb-22 01:29N 51°20' E 002°34'0 0.0
2018-Feb-22 00:59N 51°20' E 002°34'0 0.0
2018-Feb-22 00:23N 51°20' E 002°34'0 0.0
2018-Feb-21 23:47N 51°20' E 002°34'0 0.1
2018-Feb-21 23:29N 51°20' E 002°34'0 0.0
2018-Feb-21 22:59N 51°20' E 002°34'0 0.0
2018-Feb-21 22:26N 51°20' E 002°34'0 0.0
2018-Feb-21 21:44N 51°20' E 002°34'0 0.0
2018-Feb-21 21:11N 51°20' E 002°34'0 0.0
2018-Feb-21 20:56N 51°20' E 002°34'0 0.0
2018-Feb-21 20:23N 51°20' E 002°34'0 0.0
2018-Feb-21 19:59N 51°20' E 002°34'0 0.0
2018-Feb-21 19:29N 51°20' E 002°34'0 0.2
2018-Feb-21 18:59N 51°20' E 002°34'0 0.1
2018-Feb-21 18:29N 51°20' E 002°34'0 0.0
2018-Feb-21 17:59N 51°20' E 002°34'0 0.0
2018-Feb-21 17:29N 51°20' E 002°34'0 0.0
2018-Feb-21 16:56N 51°20' E 002°34'0 0.0
2018-Feb-21 16:20N 51°20' E 002°34'0 0.0
2018-Feb-21 15:59N 51°20' E 002°34'0 0.0
2018-Feb-21 15:29N 51°20' E 002°34'0 0.1
2018-Feb-21 14:59N 51°20' E 002°34'0 0.2
2018-Feb-21 14:29N 51°20' E 002°34'0 0.1
2018-Feb-21 13:56N 51°20' E 002°34'0 0.0
2018-Feb-21 13:29N 51°20' E 002°34'0 0.0
2018-Feb-21 12:59N 51°20' E 002°34'0 0.0
2018-Feb-21 12:23N 51°20' E 002°34'0 0.0
2018-Feb-21 11:53N 51°20' E 002°34'0 0.0
2018-Feb-21 11:29N 51°20' E 002°34'0 0.0
2018-Feb-21 10:59N 51°20' E 002°34'0 0.0
2018-Feb-21 10:11N 51°20' E 002°34'0 0.0
2018-Feb-21 09:59N 51°20' E 002°34'0 0.0
2018-Feb-21 09:29N 51°20' E 002°34'0 0.0
2018-Feb-21 08:56N 51°20' E 002°34'0 0.0
2018-Feb-21 08:23N 51°20' E 002°34'0 0.0
2018-Feb-21 07:47N 51°20' E 002°34'0 0.0
2018-Feb-21 07:29N 51°20' E 002°34'0 0.2
2018-Feb-21 06:50N 51°20' E 002°34'0 0.1
2018-Feb-21 06:29N 51°20' E 002°34'0 0.2
2018-Feb-21 05:59N 51°20' E 002°34'0 0.1
2018-Feb-21 05:29N 51°20' E 002°34'0 0.0
2018-Feb-21 04:50N 51°20' E 002°34'0 0.0
2018-Feb-21 04:20N 51°20' E 002°34'0 0.0
2018-Feb-21 03:50N 51°20' E 002°34'0 0.0
2018-Feb-21 03:29N 51°20' E 002°34'0 0.2
2018-Feb-21 02:56N 51°20' E 002°34'0 0.2
2018-Feb-21 02:23N 51°20' E 002°34'0 0.0
2018-Feb-21 01:59N 51°20' E 002°34'0 0.0
2018-Feb-21 01:29N 51°20' E 002°34'0 0.0
2018-Feb-21 00:59N 51°20' E 002°34'0 0.0
2018-Feb-21 00:20N 51°20' E 002°34'0 0.0
2018-Feb-20 23:59N 51°20' E 002°34'0 0.0
2018-Feb-20 23:29N 51°20' E 002°34'0 0.0
2018-Feb-20 22:59N 51°20' E 002°34'0 0.0
2018-Feb-20 22:29N 51°20' E 002°34'0 0.0
2018-Feb-20 21:53N 51°20' E 002°34'0 0.0
2018-Feb-20 21:26N 51°20' E 002°34'0 0.0
2018-Feb-20 20:53N 51°20' E 002°34'0 0.0
2018-Feb-20 20:29N 51°20' E 002°34'0 0.1
2018-Feb-20 19:55N 51°20' E 002°34'0 0.0
2018-Feb-20 19:29N 51°20' E 002°34'0 0.1
2018-Feb-20 18:55N 51°20' E 002°34'0 0.1
2018-Feb-20 18:28N 51°20' E 002°34'0 0.0
2018-Feb-20 17:58N 51°20' E 002°34'0 0.0
2018-Feb-20 17:28N 51°20' E 002°34'0 0.0
2018-Feb-20 16:58N 51°20' E 002°34'0 0.0
2018-Feb-20 16:28N 51°20' E 002°34'0 0.2
2018-Feb-20 15:58N 51°20' E 002°34'0 0.0
2018-Feb-20 15:28N 51°20' E 002°34'0 0.1
2018-Feb-20 14:58N 51°20' E 002°34'0 0.1
2018-Feb-20 14:28N 51°20' E 002°34'0 0.0
2018-Feb-20 13:58N 51°20' E 002°34'0 0.1
2018-Feb-20 13:28N 51°20' E 002°34'0 0.2
2018-Feb-20 12:58N 51°20' E 002°34'0 0.0
2018-Feb-20 12:28N 51°20' E 002°34'0 0.0
2018-Feb-20 11:43N 51°20' E 002°34'0 0.0
2018-Feb-20 11:28N 51°20' E 002°34'0 0.0
2018-Feb-20 10:37N 51°20' E 002°34'0 0.1
2018-Feb-20 10:28N 51°20' E 002°34'0 0.2
2018-Feb-20 10:00N 51°20' E 002°34'2 3.9
2018-Feb-20 09:30N 51°22' E 002°32'5 9.0
2018-Feb-20 09:00N 51°21' E 002°25'5 9.9
2018-Feb-20 08:29N 51°18' E 002°18'610.1
2018-Feb-20 07:53N 51°15' E 002°10'4 9.9
2018-Feb-20 07:30N 51°13' E 002°05'510.7
2018-Feb-20 07:00N 51°11' E 001°57'610.9
2018-Feb-20 06:30N 51°08' E 001°49'611.4
2018-Feb-20 06:01N 51°04' E 001°43'611.7
2018-Feb-20 05:30N 50°60' E 001°36'612.1
2018-Feb-20 04:59N 50°55' E 001°30'7312.0
2018-Feb-19 22:51N 50°00' E 000°14'513.3
2018-Feb-19 22:29N 49°57' E 000°08'612.9
2018-Feb-19 22:00N 49°53' E 000°01'612.3
2018-Feb-19 21:30N 49°49' W 000°06'510.8
2018-Feb-19 21:00N 49°44' W 000°10'510.1
2018-Feb-19 20:30N 49°39' W 000°10'510.1
2018-Feb-19 20:00N 49°34' W 000°11'5 9.2
2018-Feb-19 19:30N 49°30' W 000°08'510.9
2018-Feb-19 19:00N 49°28' E 000°00'5 9.4
2018-Feb-19 18:30N 49°26' E 000°07'612.4
2018-Feb-19 18:00N 49°26' E 000°17'713.6
2018-Feb-19 17:30N 49°28' E 000°27'5 9.4
2018-Feb-19 17:00N 49°27' E 000°34'5 9.7
2018-Feb-19 16:30N 49°29' E 000°40'4 8.4
2018-Feb-19 16:00N 49°30' E 000°46'5 9.8
2018-Feb-19 15:30N 49°25' E 000°48'2 4.7
2018-Feb-19 15:00N 49°26' E 000°52'4 7.9
2018-Feb-19 14:30N 49°29' E 000°54'4 8.5
2018-Feb-19 14:01N 49°25' E 000°56'4 7.8
2018-Feb-19 13:30N 49°21' E 000°57'2 2.4
2018-Feb-19 12:49N 49°21' E 000°59'0 0.0
2018-Feb-19 12:25N 49°21' E 000°59'0 0.0
2018-Feb-19 11:43N 49°21' E 000°59'0 0.0
2018-Feb-19 11:25N 49°21' E 000°59'0 0.0
2018-Feb-19 10:55N 49°21' E 000°59'0 0.0
2018-Feb-19 10:25N 49°21' E 000°59'0 0.0
2018-Feb-19 09:55N 49°21' E 000°59'0 0.0
2018-Feb-19 09:25N 49°21' E 000°59'0 0.0
2018-Feb-19 08:55N 49°21' E 000°59'0 0.0
2018-Feb-19 08:25N 49°21' E 000°59'0 0.0
2018-Feb-19 07:55N 49°21' E 000°59'0 0.0
2018-Feb-19 07:25N 49°21' E 000°59'0 0.0
2018-Feb-19 06:55N 49°21' E 000°59'0 0.0
2018-Feb-19 06:19N 49°21' E 000°59'0 0.0
2018-Feb-19 05:55N 49°21' E 000°59'0 0.0
2018-Feb-19 05:25N 49°21' E 000°59'0 0.0
2018-Feb-19 04:55N 49°21' E 000°59'0 0.0
2018-Feb-19 04:25N 49°21' E 000°59'0 0.0
2018-Feb-19 03:55N 49°21' E 000°59'0 0.0
2018-Feb-19 03:13N 49°21' E 000°59'0 0.0
2018-Feb-19 02:55N 49°21' E 000°59'0 0.0
2018-Feb-19 02:25N 49°21' E 000°59'0 0.0
2018-Feb-19 01:55N 49°21' E 000°59'0 0.0
2018-Feb-19 01:25N 49°21' E 000°59'0 0.0
2018-Feb-19 00:55N 49°21' E 000°59'0 0.0
2018-Feb-19 00:25N 49°21' E 000°59'0 0.0
2018-Feb-18 23:55N 49°21' E 000°59'0 0.0
2018-Feb-18 23:19N 49°21' E 000°59'0 0.0
2018-Feb-18 22:55N 49°21' E 000°59'0 0.0
2018-Feb-18 22:25N 49°21' E 000°59'0 0.0
2018-Feb-18 21:49N 49°21' E 000°59'0 0.0
2018-Feb-18 21:19N 49°21' E 000°59'0 0.0
2018-Feb-18 20:55N 49°21' E 000°59'0 0.0
2018-Feb-18 20:31N 49°21' E 000°59'0 0.0
2018-Feb-18 19:55N 49°21' E 000°59'0 0.0
2018-Feb-18 19:24N 49°21' E 000°59'0 0.0
2018-Feb-18 19:00N 49°21' E 000°59'0 0.0
2018-Feb-18 18:30N 49°21' E 000°59'0 0.0
2018-Feb-18 18:00N 49°21' E 000°59'0 0.0
2018-Feb-18 17:30N 49°21' E 000°59'0 0.0
2018-Feb-18 17:00N 49°21' E 000°59'0 0.0
2018-Feb-18 16:24N 49°21' E 000°59'0 0.0
2018-Feb-18 16:00N 49°21' E 000°59'0 0.0
2018-Feb-18 15:24N 49°21' E 000°59'0 0.0
2018-Feb-18 15:00N 49°21' E 000°59'0 0.0
2018-Feb-18 14:30N 49°21' E 000°59'0 0.0
2018-Feb-18 14:00N 49°21' E 000°59'0 0.0
2018-Feb-18 13:30N 49°21' E 000°59'0 0.0
2018-Feb-18 13:00N 49°21' E 000°59'0 0.0
2018-Feb-18 12:30N 49°21' E 000°59'0 0.0
2018-Feb-18 12:00N 49°21' E 000°59'0 0.0
2018-Feb-18 11:30N 49°21' E 000°59'0 0.0
2018-Feb-18 11:00N 49°21' E 000°59'0 0.0
2018-Feb-18 10:30N 49°21' E 000°59'0 0.0
2018-Feb-18 09:54N 49°21' E 000°59'0 0.0
2018-Feb-18 09:24N 49°21' E 000°59'0 0.0
2018-Feb-18 09:00N 49°21' E 000°59'0 0.0
2018-Feb-18 08:30N 49°21' E 000°59'0 0.0
2018-Feb-18 08:00N 49°21' E 000°59'0 0.0
2018-Feb-18 07:30N 49°21' E 000°59'0 0.0
2018-Feb-18 07:00N 49°21' E 000°59'0 0.0
2018-Feb-18 06:30N 49°21' E 000°59'0 0.0
2018-Feb-18 06:00N 49°21' E 000°59'0 0.0
2018-Feb-18 05:30N 49°21' E 000°59'0 0.0
2018-Feb-18 05:00N 49°21' E 000°59'0 0.0
2018-Feb-18 04:30N 49°21' E 000°59'2 3.6
2018-Feb-18 04:00N 49°21' E 000°57'4 8.3
2018-Feb-18 03:30N 49°25' E 000°56'4 8.3
2018-Feb-18 03:00N 49°29' E 000°54'4 8.3
2018-Feb-18 02:30N 49°25' E 000°52'3 5.1
2018-Feb-18 02:00N 49°26' E 000°48'5 9.4
2018-Feb-18 01:30N 49°30' E 000°46'4 8.3
2018-Feb-18 01:00N 49°30' E 000°40'510.0
2018-Feb-18 00:30N 49°26' E 000°35'510.0
2018-Feb-18 00:00N 49°29' E 000°29'611.8
2018-Feb-17 23:30N 49°26' E 000°20'611.5
2018-Feb-17 23:00N 49°26' E 000°12'611.2
2018-Feb-17 22:30N 49°27' E 000°03'510.6
2018-Feb-17 22:00N 49°29' W 000°04'1 2.7
2018-Feb-17 21:29N 49°28' W 000°06'0 0.1
2018-Feb-17 20:59N 49°28' W 000°06'0 0.1
2018-Feb-17 20:29N 49°28' W 000°06'0 0.2
2018-Feb-17 19:56N 49°28' W 000°06'0 0.2
2018-Feb-17 19:29N 49°28' W 000°06'0 0.1
2018-Feb-17 18:58N 49°28' W 000°07'0 0.0
2018-Feb-17 18:28N 49°28' W 000°07'0 0.0
2018-Feb-17 17:58N 49°28' W 000°07'0 0.0
2018-Feb-17 17:28N 49°28' W 000°07'0 0.0
2018-Feb-17 16:55N 49°28' W 000°07'0 0.0
2018-Feb-17 16:28N 49°28' W 000°07'0 0.0
2018-Feb-17 15:58N 49°28' W 000°07'0 0.0
2018-Feb-17 15:28N 49°28' W 000°07'2 3.9
2018-Feb-17 15:01N 49°29' W 000°09'5 9.8
2018-Feb-17 14:30N 49°31' W 000°16'5 9.8
2018-Feb-17 14:00N 49°33' W 000°23'510.1
2018-Feb-17 13:30N 49°35' W 000°30'510.1
2018-Feb-17 12:59N 49°36' W 000°38'510.5
2018-Feb-17 12:30N 49°39' W 000°45'1111.2
2018-Feb-17 11:32N 49°43' W 001°00'012.3
2018-Feb-17 11:30N 49°43' W 001°01'612.4
2018-Feb-17 11:00N 49°46' W 001°09'713.4
2018-Feb-17 10:30N 49°48' W 001°19'714.1
2018-Feb-17 10:01N 49°49' W 001°30'714.4
2018-Feb-17 09:31N 49°50' W 001°41'815.6
2018-Feb-17 09:01N 49°51' W 001°53'2514.4
2018-Feb-17 07:18N 49°52' W 002°31'189 6.9
2018-Feb-16 04:03N 52°15' W 005°47'211.2
2018-Feb-16 03:53N 52°17' W 005°47'2812.7
2018-Feb-16 01:43N 52°44' W 005°39'413.0
2018-Feb-16 01:24N 52°48' W 005°37'612.7
2018-Feb-16 00:58N 52°53' W 005°36'94 7.1
2018-Feb-15 11:41N 54°25' W 005°03'4 8.1
2018-Feb-15 11:14N 54°28' W 005°08'2 9.1
2018-Feb-15 11:00N 54°29' W 005°11'4 9.0
2018-Feb-15 10:31N 54°31' W 005°17'4 8.4
2018-Feb-15 10:01N 54°35' W 005°22'8 9.9
2018-Feb-15 09:10N 54°42' W 005°28'210.7
2018-Feb-15 09:00N 54°43' W 005°31'511.0
2018-Feb-15 08:30N 54°42' W 005°40'5 9.8
2018-Feb-15 08:00N 54°41' W 005°48'5 9.1
2018-Feb-15 07:29N 54°37' W 005°54'  

Dump ship's entire track history